Itasca — ZGHI — position and weather

sailwx.info

Track history (hours):
 
Tides and Currents Weather Stations Pressure Air Temp Water Temp Dewpoint Dewpoint Depression Visibility Wind Speed Wind Dir Waves Ship Positions

Itasca

Last reported at 2018-Jun-15 13:27 UTC. Time now 2018-Jun-22 11:30 UTC.
Position N 41°23' E 002°11'.

Length 53 m; draft 5.2 m.

Type: Pleasure craft. MMSI: 319393000.

Date/timePositionNaut miles runAvg speedWind from/ knotsBaromVisibWave heightAir tempDewpointWater temp
2018-Jun-15 13:27N 41°23' E 002°11'1 2.5
2018-Jun-15 13:00N 41°22' E 002°11'3 6.1
2018-Jun-15 12:30N 41°20' E 002°14'1 1.7
2018-Jun-15 12:00N 41°19' E 002°15'3 6.5
2018-Jun-15 11:30N 41°17' E 002°12'510.6
2018-Jun-15 11:00N 41°12' E 002°09'23811.6
2018-Jun-14 14:31N 37°44' W 000°22'011.6
2018-Jun-14 14:30N 37°44' W 000°22'611.7
2018-Jun-14 14:00N 37°39' W 000°26'612.0
2018-Jun-14 13:28N 37°34' W 000°31'11 9.6
2018-Jun-14 12:21N 37°27' W 000°41'411.8
2018-Jun-14 12:00N 37°24' W 000°45'23510.1
2018-Jun-13 12:42N 36°09' W 005°22'0 0.5
2018-Jun-13 12:30N 36°09' W 005°22'2 4.2
2018-Jun-13 12:00N 36°07' W 005°23'611.2
2018-Jun-13 11:26N 36°00' W 005°23'  
2018-Jun-10 08:19N 38°00' W 023°12'4111.5
2018-Jun-10 04:45N 38°01' W 024°04'311.5
2018-Jun-10 04:29N 38°01' W 024°08'511.5
2018-Jun-10 04:00N 38°01' W 024°15'611.5
2018-Jun-10 03:30N 38°01' W 024°22'611.6
2018-Jun-10 03:00N 38°01' W 024°29'611.5
2018-Jun-10 02:30N 38°01' W 024°37'611.5
2018-Jun-10 02:00N 38°01' W 024°44'611.6
2018-Jun-10 01:30N 38°01' W 024°51'611.5
2018-Jun-10 01:00N 38°01' W 024°59'611.6
2018-Jun-10 00:30N 38°01' W 025°06'611.8
2018-Jun-10 00:00N 38°01' W 025°14'711.8
2018-Jun-09 23:25N 38°01' W 025°22'511.6
2018-Jun-09 23:00N 38°01' W 025°28'611.7
2018-Jun-09 22:30N 38°01' W 025°36'611.5
2018-Jun-09 22:00N 38°01' W 025°43'611.2
2018-Jun-09 21:30N 38°01' W 025°50'611.3
2018-Jun-09 21:00N 38°01' W 025°57'611.3
2018-Jun-09 20:30N 38°02' W 026°04'611.6
2018-Jun-09 20:00N 38°02' W 026°12'611.6
2018-Jun-09 19:31N 38°02' W 026°19'611.4
2018-Jun-09 19:01N 38°02' W 026°26'611.4
2018-Jun-09 18:30N 38°02' W 026°34'611.7
2018-Jun-09 18:00N 38°02' W 026°41'611.3
2018-Jun-09 17:30N 38°02' W 026°48'510.9
2018-Jun-09 17:00N 38°02' W 026°55'611.2
2018-Jun-09 16:30N 38°02' W 027°02'611.1
2018-Jun-09 16:00N 38°02' W 027°09'1111.2
2018-Jun-09 15:00N 38°02' W 027°24'611.3
2018-Jun-09 14:30N 38°02' W 027°31'510.8
2018-Jun-09 14:00N 38°02' W 027°38'510.8
2018-Jun-09 13:30N 38°02' W 027°44'611.4
2018-Jun-09 13:00N 38°02' W 027°52'611.3
2018-Jun-09 12:30N 38°02' W 027°59'611.4
2018-Jun-09 12:00N 38°03' W 028°06'611.2
2018-Jun-09 11:30N 38°03' W 028°13'611.5
2018-Jun-09 11:00N 38°03' W 028°20'611.8
2018-Jun-09 10:30N 38°03' W 028°28'611.6
2018-Jun-09 10:01N 38°03' W 028°35'611.4
2018-Jun-09 09:30N 38°03' W 028°43'611.4
2018-Jun-09 09:00N 38°03' W 028°50'611.7
2018-Jun-09 08:31N 38°03' W 028°57'611.1
2018-Jun-09 08:00N 38°03' W 029°04'611.7
2018-Jun-09 07:30N 38°03' W 029°12'611.6
2018-Jun-09 07:00N 38°03' W 029°19'611.8
2018-Jun-09 06:30N 38°03' W 029°26'611.6
2018-Jun-09 06:01N 38°03' W 029°34'611.5
2018-Jun-09 05:30N 38°03' W 029°41'611.5
2018-Jun-09 05:00N 38°03' W 029°48'811.5
2018-Jun-09 04:21N 38°03' W 029°58'411.6
2018-Jun-09 03:58N 38°03' W 030°04'711.7
2018-Jun-09 03:21N 38°03' W 030°13'611.7
2018-Jun-09 02:51N 38°03' W 030°20'4111.6
2018-Jun-08 23:17N 38°02' W 031°13'411.2
2018-Jun-08 22:55N 38°02' W 031°18'2011.8
2018-Jun-08 21:14N 38°02' W 031°43'512.0
2018-Jun-08 20:51N 38°02' W 031°49'612.1
2018-Jun-08 20:21N 38°02' W 031°57'512.1
2018-Jun-08 19:58N 38°02' W 032°03'  
Track history (hours):
 
Tides and Currents Weather Stations Pressure Air Temp Water Temp Dewpoint Dewpoint Depression Visibility Wind Speed Wind Dir Waves Ship Positions

Itasca

Last reported at 2018-Jun-15 13:27 UTC. Time now 2018-Jun-22 11:30 UTC.
Position N 41°23' E 002°11'.

Length 53 m; draft 5.2 m.

Type: Pleasure craft. MMSI: 319393000.

Date/timePositionNaut miles runAvg speedWind from/ knotsBaromVisibWave heightAir tempDewpointWater temp
2018-Jun-15 13:27N 41°23' E 002°11'1 2.5
2018-Jun-15 13:00N 41°22' E 002°11'3 6.1
2018-Jun-15 12:30N 41°20' E 002°14'1 1.7
2018-Jun-15 12:00N 41°19' E 002°15'3 6.5
2018-Jun-15 11:30N 41°17' E 002°12'510.6
2018-Jun-15 11:00N 41°12' E 002°09'23811.6
2018-Jun-14 14:31N 37°44' W 000°22'011.6
2018-Jun-14 14:30N 37°44' W 000°22'611.7
2018-Jun-14 14:00N 37°39' W 000°26'612.0
2018-Jun-14 13:28N 37°34' W 000°31'11 9.6
2018-Jun-14 12:21N 37°27' W 000°41'411.8
2018-Jun-14 12:00N 37°24' W 000°45'23510.1
2018-Jun-13 12:42N 36°09' W 005°22'0 0.5
2018-Jun-13 12:30N 36°09' W 005°22'2 4.2
2018-Jun-13 12:00N 36°07' W 005°23'611.2
2018-Jun-13 11:26N 36°00' W 005°23'  
2018-Jun-10 08:19N 38°00' W 023°12'4111.5
2018-Jun-10 04:45N 38°01' W 024°04'311.5
2018-Jun-10 04:29N 38°01' W 024°08'511.5
2018-Jun-10 04:00N 38°01' W 024°15'611.5
2018-Jun-10 03:30N 38°01' W 024°22'611.6
2018-Jun-10 03:00N 38°01' W 024°29'611.5
2018-Jun-10 02:30N 38°01' W 024°37'611.5
2018-Jun-10 02:00N 38°01' W 024°44'611.6
2018-Jun-10 01:30N 38°01' W 024°51'611.5
2018-Jun-10 01:00N 38°01' W 024°59'611.6
2018-Jun-10 00:30N 38°01' W 025°06'611.8
2018-Jun-10 00:00N 38°01' W 025°14'711.8
2018-Jun-09 23:25N 38°01' W 025°22'511.6
2018-Jun-09 23:00N 38°01' W 025°28'611.7
2018-Jun-09 22:30N 38°01' W 025°36'611.5
2018-Jun-09 22:00N 38°01' W 025°43'611.2
2018-Jun-09 21:30N 38°01' W 025°50'611.3
2018-Jun-09 21:00N 38°01' W 025°57'611.3
2018-Jun-09 20:30N 38°02' W 026°04'611.6
2018-Jun-09 20:00N 38°02' W 026°12'611.6
2018-Jun-09 19:31N 38°02' W 026°19'611.4
2018-Jun-09 19:01N 38°02' W 026°26'611.4
2018-Jun-09 18:30N 38°02' W 026°34'611.7
2018-Jun-09 18:00N 38°02' W 026°41'611.3
2018-Jun-09 17:30N 38°02' W 026°48'510.9
2018-Jun-09 17:00N 38°02' W 026°55'611.2
2018-Jun-09 16:30N 38°02' W 027°02'611.1
2018-Jun-09 16:00N 38°02' W 027°09'1111.2
2018-Jun-09 15:00N 38°02' W 027°24'611.3
2018-Jun-09 14:30N 38°02' W 027°31'510.8
2018-Jun-09 14:00N 38°02' W 027°38'510.8
2018-Jun-09 13:30N 38°02' W 027°44'611.4
2018-Jun-09 13:00N 38°02' W 027°52'611.3
2018-Jun-09 12:30N 38°02' W 027°59'611.4
2018-Jun-09 12:00N 38°03' W 028°06'611.2
2018-Jun-09 11:30N 38°03' W 028°13'611.5
2018-Jun-09 11:00N 38°03' W 028°20'611.8
2018-Jun-09 10:30N 38°03' W 028°28'611.6
2018-Jun-09 10:01N 38°03' W 028°35'611.4
2018-Jun-09 09:30N 38°03' W 028°43'611.4
2018-Jun-09 09:00N 38°03' W 028°50'611.7
2018-Jun-09 08:31N 38°03' W 028°57'611.1
2018-Jun-09 08:00N 38°03' W 029°04'611.7
2018-Jun-09 07:30N 38°03' W 029°12'611.6
2018-Jun-09 07:00N 38°03' W 029°19'611.8
2018-Jun-09 06:30N 38°03' W 029°26'611.6
2018-Jun-09 06:01N 38°03' W 029°34'611.5
2018-Jun-09 05:30N 38°03' W 029°41'611.5
2018-Jun-09 05:00N 38°03' W 029°48'811.5
2018-Jun-09 04:21N 38°03' W 029°58'411.6
2018-Jun-09 03:58N 38°03' W 030°04'711.7
2018-Jun-09 03:21N 38°03' W 030°13'611.7
2018-Jun-09 02:51N 38°03' W 030°20'4111.6
2018-Jun-08 23:17N 38°02' W 031°13'411.2
2018-Jun-08 22:55N 38°02' W 031°18'2011.8
2018-Jun-08 21:14N 38°02' W 031°43'512.0
2018-Jun-08 20:51N 38°02' W 031°49'612.1
2018-Jun-08 20:21N 38°02' W 031°57'512.1
2018-Jun-08 19:58N 38°02' W 032°03'  

Dump ship's entire track history